sensor_id;sensor_type;location;lat;lon;timestamp;P1;durP1;ratioP1;P2;durP2;ratioP2
71566;SDS011;59403;47.456;19.120;2023-05-23T00:00:08;12.75;;;9.60;;
71566;SDS011;59403;47.456;19.120;2023-05-23T00:02:38;11.23;;;8.40;;
71566;SDS011;59403;47.456;19.120;2023-05-23T00:05:06;11.63;;;8.30;;
71566;SDS011;59403;47.456;19.120;2023-05-23T00:07:36;9.93;;;8.68;;
71566;SDS011;59403;47.456;19.120;2023-05-23T00:10:03;12.65;;;8.75;;
71566;SDS011;59403;47.456;19.120;2023-05-23T00:12:30;11.38;;;9.43;;
71566;SDS011;59403;47.456;19.120;2023-05-23T00:14:58;12.00;;;8.37;;
71566;SDS011;59403;47.456;19.120;2023-05-23T00:17:27;12.48;;;8.35;;
71566;SDS011;59403;47.456;19.120;2023-05-23T00:19:54;13.80;;;9.23;;
71566;SDS011;59403;47.456;19.120;2023-05-23T00:22:21;12.37;;;8.55;;
71566;SDS011;59403;47.456;19.120;2023-05-23T00:24:48;13.82;;;9.68;;
71566;SDS011;59403;47.456;19.120;2023-05-23T00:27:15;14.93;;;8.87;;
71566;SDS011;59403;47.456;19.120;2023-05-23T00:29:41;15.18;;;9.32;;
71566;SDS011;59403;47.456;19.120;2023-05-23T00:32:08;10.93;;;8.98;;
71566;SDS011;59403;47.456;19.120;2023-05-23T00:34:37;15.43;;;9.15;;
71566;SDS011;59403;47.456;19.120;2023-05-23T00:37:04;11.85;;;9.63;;
71566;SDS011;59403;47.456;19.120;2023-05-23T00:39:32;12.97;;;8.73;;
71566;SDS011;59403;47.456;19.120;2023-05-23T00:42:02;12.10;;;8.48;;
71566;SDS011;59403;47.456;19.120;2023-05-23T00:44:30;13.57;;;8.60;;
71566;SDS011;59403;47.456;19.120;2023-05-23T00:46:57;11.45;;;8.30;;
71566;SDS011;59403;47.456;19.120;2023-05-23T00:49:24;13.30;;;8.55;;
71566;SDS011;59403;47.456;19.120;2023-05-23T00:51:54;12.17;;;8.77;;
71566;SDS011;59403;47.456;19.120;2023-05-23T00:54:22;10.98;;;8.15;;
71566;SDS011;59403;47.456;19.120;2023-05-23T00:56:52;11.55;;;8.60;;
71566;SDS011;59403;47.456;19.120;2023-05-23T00:59:20;12.30;;;7.87;;
71566;SDS011;59403;47.456;19.120;2023-05-23T01:04:39;10.50;;;8.03;;
71566;SDS011;59403;47.456;19.120;2023-05-23T01:07:09;12.93;;;8.95;;
71566;SDS011;59403;47.456;19.120;2023-05-23T01:09:37;10.57;;;7.95;;
71566;SDS011;59403;47.456;19.120;2023-05-23T01:12:08;11.73;;;7.68;;
71566;SDS011;59403;47.456;19.120;2023-05-23T01:14:46;11.23;;;7.90;;
71566;SDS011;59403;47.456;19.120;2023-05-23T01:17:22;10.17;;;8.10;;
71566;SDS011;59403;47.456;19.120;2023-05-23T01:19:56;10.25;;;7.40;;
71566;SDS011;59403;47.456;19.120;2023-05-23T01:22:32;11.05;;;7.78;;
71566;SDS011;59403;47.456;19.120;2023-05-23T01:25:08;13.50;;;7.37;;
71566;SDS011;59403;47.456;19.120;2023-05-23T01:27:45;11.48;;;8.75;;
71566;SDS011;59403;47.456;19.120;2023-05-23T01:30:17;9.13;;;7.60;;
71566;SDS011;59403;47.456;19.120;2023-05-23T01:32:47;10.15;;;7.00;;
71566;SDS011;59403;47.456;19.120;2023-05-23T01:35:17;9.57;;;7.75;;
71566;SDS011;59403;47.456;19.120;2023-05-23T01:37:47;12.95;;;7.47;;
71566;SDS011;59403;47.456;19.120;2023-05-23T01:40:14;12.25;;;8.02;;
71566;SDS011;59403;47.456;19.120;2023-05-23T01:42:41;11.73;;;7.40;;
71566;SDS011;59403;47.456;19.120;2023-05-23T01:45:10;10.15;;;7.80;;
71566;SDS011;59403;47.456;19.120;2023-05-23T01:47:38;10.90;;;8.23;;
71566;SDS011;59403;47.456;19.120;2023-05-23T01:50:06;10.68;;;7.35;;
71566;SDS011;59403;47.456;19.120;2023-05-23T01:52:34;8.90;;;7.53;;
71566;SDS011;59403;47.456;19.120;2023-05-23T01:55:02;11.73;;;7.30;;
71566;SDS011;59403;47.456;19.120;2023-05-23T01:57:34;9.57;;;7.62;;
71566;SDS011;59403;47.456;19.120;2023-05-23T02:00:02;9.93;;;8.02;;
71566;SDS011;59403;47.456;19.120;2023-05-23T02:02:31;9.45;;;7.93;;
71566;SDS011;59403;47.456;19.120;2023-05-23T02:04:58;13.43;;;7.87;;
71566;SDS011;59403;47.456;19.120;2023-05-23T02:07:26;10.27;;;7.53;;
71566;SDS011;59403;47.456;19.120;2023-05-23T02:09:53;14.65;;;7.60;;
71566;SDS011;59403;47.456;19.120;2023-05-23T02:12:20;9.30;;;7.32;;
71566;SDS011;59403;47.456;19.120;2023-05-23T02:14:49;8.75;;;6.65;;
71566;SDS011;59403;47.456;19.120;2023-05-23T02:17:17;8.93;;;7.50;;
71566;SDS011;59403;47.456;19.120;2023-05-23T02:19:47;9.57;;;7.30;;
71566;SDS011;59403;47.456;19.120;2023-05-23T02:22:14;13.52;;;8.00;;
71566;SDS011;59403;47.456;19.120;2023-05-23T02:24:41;9.43;;;7.90;;
71566;SDS011;59403;47.456;19.120;2023-05-23T02:27:08;8.65;;;7.20;;
71566;SDS011;59403;47.456;19.120;2023-05-23T02:29:35;10.35;;;7.97;;
71566;SDS011;59403;47.456;19.120;2023-05-23T02:32:02;11.73;;;6.90;;
71566;SDS011;59403;47.456;19.120;2023-05-23T02:34:29;8.02;;;6.50;;
71566;SDS011;59403;47.456;19.120;2023-05-23T02:36:57;11.70;;;8.15;;
71566;SDS011;59403;47.456;19.120;2023-05-23T02:39:25;11.23;;;7.95;;
71566;SDS011;59403;47.456;19.120;2023-05-23T02:41:52;9.73;;;8.00;;
71566;SDS011;59403;47.456;19.120;2023-05-23T02:44:19;11.60;;;7.50;;
71566;SDS011;59403;47.456;19.120;2023-05-23T02:46:46;9.02;;;7.03;;
71566;SDS011;59403;47.456;19.120;2023-05-23T02:49:13;12.73;;;7.20;;
71566;SDS011;59403;47.456;19.120;2023-05-23T02:51:39;10.23;;;7.28;;
71566;SDS011;59403;47.456;19.120;2023-05-23T02:54:08;10.95;;;7.47;;
71566;SDS011;59403;47.456;19.120;2023-05-23T02:56:34;9.40;;;7.70;;
71566;SDS011;59403;47.456;19.120;2023-05-23T02:59:01;9.90;;;7.20;;
71566;SDS011;59403;47.456;19.120;2023-05-23T03:01:28;11.57;;;7.65;;
71566;SDS011;59403;47.456;19.120;2023-05-23T03:03:55;14.30;;;7.55;;
71566;SDS011;59403;47.456;19.120;2023-05-23T03:06:22;11.90;;;7.57;;
71566;SDS011;59403;47.456;19.120;2023-05-23T03:08:51;9.57;;;7.20;;
71566;SDS011;59403;47.456;19.120;2023-05-23T03:11:19;10.57;;;7.68;;
71566;SDS011;59403;47.456;19.120;2023-05-23T03:13:47;13.65;;;8.25;;
71566;SDS011;59403;47.456;19.120;2023-05-23T03:16:13;12.00;;;8.20;;
71566;SDS011;59403;47.456;19.120;2023-05-23T03:18:40;11.27;;;8.13;;
71566;SDS011;59403;47.456;19.120;2023-05-23T03:21:07;11.93;;;7.13;;
71566;SDS011;59403;47.456;19.120;2023-05-23T03:23:34;10.63;;;7.45;;
71566;SDS011;59403;47.456;19.120;2023-05-23T03:26:01;12.57;;;8.02;;
71566;SDS011;59403;47.456;19.120;2023-05-23T03:28:31;9.93;;;7.40;;
71566;SDS011;59403;47.456;19.120;2023-05-23T03:30:59;11.45;;;8.05;;
71566;SDS011;59403;47.456;19.120;2023-05-23T03:33:26;10.40;;;7.47;;
71566;SDS011;59403;47.456;19.120;2023-05-23T03:35:52;12.80;;;8.57;;
71566;SDS011;59403;47.456;19.120;2023-05-23T03:38:20;13.02;;;7.93;;
71566;SDS011;59403;47.456;19.120;2023-05-23T03:40:47;11.43;;;8.27;;
71566;SDS011;59403;47.456;19.120;2023-05-23T03:43:14;12.52;;;8.63;;
71566;SDS011;59403;47.456;19.120;2023-05-23T03:45:42;13.80;;;7.87;;
71566;SDS011;59403;47.456;19.120;2023-05-23T03:48:09;13.18;;;8.18;;
71566;SDS011;59403;47.456;19.120;2023-05-23T03:50:36;10.73;;;7.75;;
71566;SDS011;59403;47.456;19.120;2023-05-23T03:53:03;11.75;;;8.43;;
71566;SDS011;59403;47.456;19.120;2023-05-23T03:55:31;12.93;;;8.13;;
71566;SDS011;59403;47.456;19.120;2023-05-23T03:57:58;13.87;;;8.50;;
71566;SDS011;59403;47.456;19.120;2023-05-23T04:00:25;12.37;;;8.00;;
71566;SDS011;59403;47.456;19.120;2023-05-23T04:02:54;12.43;;;8.45;;
71566;SDS011;59403;47.456;19.120;2023-05-23T04:05:21;11.15;;;8.10;;
71566;SDS011;59403;47.456;19.120;2023-05-23T04:07:48;14.55;;;8.80;;
71566;SDS011;59403;47.456;19.120;2023-05-23T04:10:15;12.37;;;7.97;;
71566;SDS011;59403;47.456;19.120;2023-05-23T04:12:42;14.15;;;9.18;;
71566;SDS011;59403;47.456;19.120;2023-05-23T04:15:09;12.15;;;9.70;;
71566;SDS011;59403;47.456;19.120;2023-05-23T04:17:36;16.02;;;9.20;;
71566;SDS011;59403;47.456;19.120;2023-05-23T04:20:06;13.93;;;9.40;;
71566;SDS011;59403;47.456;19.120;2023-05-23T04:22:34;12.73;;;9.03;;
71566;SDS011;59403;47.456;19.120;2023-05-23T04:25:01;14.57;;;9.50;;
71566;SDS011;59403;47.456;19.120;2023-05-23T04:27:28;11.85;;;9.40;;
71566;SDS011;59403;47.456;19.120;2023-05-23T04:29:55;11.70;;;9.77;;
71566;SDS011;59403;47.456;19.120;2023-05-23T04:32:24;13.73;;;8.82;;
71566;SDS011;59403;47.456;19.120;2023-05-23T04:34:51;14.03;;;9.77;;
71566;SDS011;59403;47.456;19.120;2023-05-23T04:37:19;14.18;;;9.40;;
71566;SDS011;59403;47.456;19.120;2023-05-23T04:39:50;17.58;;;9.93;;
71566;SDS011;59403;47.456;19.120;2023-05-23T04:42:17;14.60;;;9.60;;
71566;SDS011;59403;47.456;19.120;2023-05-23T04:44:48;13.70;;;9.80;;
71566;SDS011;59403;47.456;19.120;2023-05-23T04:47:15;15.70;;;9.80;;
71566;SDS011;59403;47.456;19.120;2023-05-23T04:49:43;12.70;;;9.68;;
71566;SDS011;59403;47.456;19.120;2023-05-23T04:52:10;14.25;;;10.45;;
71566;SDS011;59403;47.456;19.120;2023-05-23T04:54:38;14.82;;;10.20;;
71566;SDS011;59403;47.456;19.120;2023-05-23T04:57:08;16.42;;;10.18;;
71566;SDS011;59403;47.456;19.120;2023-05-23T04:59:36;15.60;;;10.70;;
71566;SDS011;59403;47.456;19.120;2023-05-23T05:02:03;14.77;;;11.05;;
71566;SDS011;59403;47.456;19.120;2023-05-23T05:04:31;14.85;;;11.25;;
71566;SDS011;59403;47.456;19.120;2023-05-23T05:06:58;13.95;;;11.00;;
71566;SDS011;59403;47.456;19.120;2023-05-23T05:09:27;16.25;;;10.73;;
71566;SDS011;59403;47.456;19.120;2023-05-23T05:11:55;13.53;;;10.07;;
71566;SDS011;59403;47.456;19.120;2023-05-23T05:14:23;14.23;;;9.93;;
71566;SDS011;59403;47.456;19.120;2023-05-23T05:16:50;16.58;;;10.95;;
71566;SDS011;59403;47.456;19.120;2023-05-23T05:19:18;13.68;;;9.50;;
71566;SDS011;59403;47.456;19.120;2023-05-23T05:21:46;14.85;;;10.45;;
71566;SDS011;59403;47.456;19.120;2023-05-23T05:24:13;18.20;;;11.97;;
71566;SDS011;59403;47.456;19.120;2023-05-23T05:26:40;12.73;;;9.75;;
71566;SDS011;59403;47.456;19.120;2023-05-23T05:29:08;13.35;;;10.50;;
71566;SDS011;59403;47.456;19.120;2023-05-23T05:31:35;12.57;;;9.88;;
71566;SDS011;59403;47.456;19.120;2023-05-23T05:34:02;16.95;;;10.10;;
71566;SDS011;59403;47.456;19.120;2023-05-23T05:36:29;16.40;;;10.10;;
71566;SDS011;59403;47.456;19.120;2023-05-23T05:38:56;13.85;;;10.40;;
71566;SDS011;59403;47.456;19.120;2023-05-23T05:41:23;15.80;;;10.85;;
71566;SDS011;59403;47.456;19.120;2023-05-23T05:43:50;14.77;;;10.85;;
71566;SDS011;59403;47.456;19.120;2023-05-23T05:46:19;15.18;;;10.40;;
71566;SDS011;59403;47.456;19.120;2023-05-23T05:48:46;12.60;;;10.00;;
71566;SDS011;59403;47.456;19.120;2023-05-23T05:51:12;14.63;;;9.45;;
71566;SDS011;59403;47.456;19.120;2023-05-23T05:53:40;16.42;;;10.70;;
71566;SDS011;59403;47.456;19.120;2023-05-23T05:56:07;15.27;;;11.38;;
71566;SDS011;59403;47.456;19.120;2023-05-23T05:58:34;17.62;;;10.90;;
71566;SDS011;59403;47.456;19.120;2023-05-23T06:01:01;13.73;;;9.37;;
71566;SDS011;59403;47.456;19.120;2023-05-23T06:03:31;15.57;;;10.38;;
71566;SDS011;59403;47.456;19.120;2023-05-23T06:05:58;13.62;;;10.23;;
71566;SDS011;59403;47.456;19.120;2023-05-23T06:08:25;14.80;;;10.45;;
71566;SDS011;59403;47.456;19.120;2023-05-23T06:10:52;19.58;;;10.65;;
71566;SDS011;59403;47.456;19.120;2023-05-23T06:13:18;14.50;;;10.30;;
71566;SDS011;59403;47.456;19.120;2023-05-23T06:15:45;15.60;;;10.70;;
71566;SDS011;59403;47.456;19.120;2023-05-23T06:18:12;13.05;;;10.32;;
71566;SDS011;59403;47.456;19.120;2023-05-23T06:20:41;15.85;;;10.05;;
71566;SDS011;59403;47.456;19.120;2023-05-23T06:23:08;14.40;;;10.38;;
71566;SDS011;59403;47.456;19.120;2023-05-23T06:25:35;15.97;;;9.90;;
71566;SDS011;59403;47.456;19.120;2023-05-23T06:28:01;13.40;;;10.65;;
71566;SDS011;59403;47.456;19.120;2023-05-23T06:30:28;14.75;;;11.23;;
71566;SDS011;59403;47.456;19.120;2023-05-23T06:32:55;21.75;;;11.88;;
71566;SDS011;59403;47.456;19.120;2023-05-23T06:35:22;14.07;;;10.60;;
71566;SDS011;59403;47.456;19.120;2023-05-23T06:37:51;14.90;;;10.70;;
71566;SDS011;59403;47.456;19.120;2023-05-23T06:40:18;14.70;;;10.88;;
71566;SDS011;59403;47.456;19.120;2023-05-23T06:42:45;18.00;;;10.07;;
71566;SDS011;59403;47.456;19.120;2023-05-23T06:45:12;14.82;;;10.23;;
71566;SDS011;59403;47.456;19.120;2023-05-23T06:47:39;16.58;;;10.80;;
71566;SDS011;59403;47.456;19.120;2023-05-23T06:50:08;15.33;;;10.97;;
71566;SDS011;59403;47.456;19.120;2023-05-23T06:52:35;12.50;;;8.98;;
71566;SDS011;59403;47.456;19.120;2023-05-23T06:55:04;14.65;;;8.45;;
71566;SDS011;59403;47.456;19.120;2023-05-23T06:57:31;10.80;;;7.95;;
71566;SDS011;59403;47.456;19.120;2023-05-23T06:59:58;9.57;;;8.02;;
71566;SDS011;59403;47.456;19.120;2023-05-23T07:02:25;13.50;;;7.70;;
71566;SDS011;59403;47.456;19.120;2023-05-23T07:04:52;10.68;;;7.30;;
71566;SDS011;59403;47.456;19.120;2023-05-23T07:07:19;11.32;;;7.28;;
71566;SDS011;59403;47.456;19.120;2023-05-23T07:09:46;10.55;;;7.75;;
71566;SDS011;59403;47.456;19.120;2023-05-23T07:12:14;10.85;;;7.37;;
71566;SDS011;59403;47.456;19.120;2023-05-23T07:14:41;10.03;;;6.93;;
71566;SDS011;59403;47.456;19.120;2023-05-23T07:17:08;10.40;;;6.57;;
71566;SDS011;59403;47.456;19.120;2023-05-23T07:19:35;11.18;;;6.95;;
71566;SDS011;59403;47.456;19.120;2023-05-23T07:22:02;11.73;;;7.60;;
71566;SDS011;59403;47.456;19.120;2023-05-23T07:24:29;11.95;;;7.07;;
71566;SDS011;59403;47.456;19.120;2023-05-23T07:26:56;11.43;;;6.57;;
71566;SDS011;59403;47.456;19.120;2023-05-23T07:29:25;9.68;;;6.93;;
71566;SDS011;59403;47.456;19.120;2023-05-23T07:31:52;11.82;;;6.60;;
71566;SDS011;59403;47.456;19.120;2023-05-23T07:34:18;9.57;;;6.47;;
71566;SDS011;59403;47.456;19.120;2023-05-23T07:36:45;12.13;;;6.78;;
71566;SDS011;59403;47.456;19.120;2023-05-23T07:39:14;11.33;;;6.40;;
71566;SDS011;59403;47.456;19.120;2023-05-23T07:41:46;6.87;;;5.95;;
71566;SDS011;59403;47.456;19.120;2023-05-23T07:44:13;8.52;;;6.78;;
71566;SDS011;59403;47.456;19.120;2023-05-23T07:46:41;8.95;;;5.70;;
71566;SDS011;59403;47.456;19.120;2023-05-23T07:49:08;8.20;;;6.45;;
71566;SDS011;59403;47.456;19.120;2023-05-23T07:51:35;8.10;;;5.77;;
71566;SDS011;59403;47.456;19.120;2023-05-23T07:54:02;8.60;;;5.05;;
71566;SDS011;59403;47.456;19.120;2023-05-23T07:56:29;9.77;;;6.05;;
71566;SDS011;59403;47.456;19.120;2023-05-23T07:58:56;10.27;;;5.90;;
71566;SDS011;59403;47.456;19.120;2023-05-23T08:01:23;8.38;;;5.62;;
71566;SDS011;59403;47.456;19.120;2023-05-23T08:03:52;8.70;;;6.03;;
71566;SDS011;59403;47.456;19.120;2023-05-23T08:06:19;11.57;;;5.50;;
71566;SDS011;59403;47.456;19.120;2023-05-23T08:08:46;9.95;;;6.25;;
71566;SDS011;59403;47.456;19.120;2023-05-23T08:11:13;8.30;;;5.68;;
71566;SDS011;59403;47.456;19.120;2023-05-23T08:13:40;7.50;;;6.18;;
71566;SDS011;59403;47.456;19.120;2023-05-23T08:16:07;8.47;;;5.70;;
71566;SDS011;59403;47.456;19.120;2023-05-23T08:18:34;8.98;;;5.45;;
71566;SDS011;59403;47.456;19.120;2023-05-23T08:21:02;6.95;;;5.82;;
71566;SDS011;59403;47.456;19.120;2023-05-23T08:23:29;7.30;;;5.62;;
71566;SDS011;59403;47.456;19.120;2023-05-23T08:25:56;9.30;;;6.47;;
71566;SDS011;59403;47.456;19.120;2023-05-23T08:28:23;8.20;;;5.67;;
71566;SDS011;59403;47.456;19.120;2023-05-23T08:30:50;8.02;;;5.43;;
71566;SDS011;59403;47.456;19.120;2023-05-23T08:33:18;8.38;;;6.45;;
71566;SDS011;59403;47.456;19.120;2023-05-23T08:35:45;8.30;;;5.37;;
71566;SDS011;59403;47.456;19.120;2023-05-23T08:38:13;10.73;;;6.55;;
71566;SDS011;59403;47.456;19.120;2023-05-23T08:40:40;8.97;;;6.03;;
71566;SDS011;59403;47.456;19.120;2023-05-23T08:43:14;8.75;;;6.12;;
71566;SDS011;59403;47.456;19.120;2023-05-23T08:45:42;8.77;;;6.87;;
71566;SDS011;59403;47.456;19.120;2023-05-23T08:48:10;8.23;;;6.97;;
71566;SDS011;59403;47.456;19.120;2023-05-23T08:50:39;9.60;;;6.62;;
71566;SDS011;59403;47.456;19.120;2023-05-23T08:53:08;10.27;;;6.47;;
71566;SDS011;59403;47.456;19.120;2023-05-23T08:55:36;9.77;;;6.10;;
71566;SDS011;59403;47.456;19.120;2023-05-23T08:58:04;8.80;;;6.72;;
71566;SDS011;59403;47.456;19.120;2023-05-23T09:00:31;10.25;;;6.20;;
71566;SDS011;59403;47.456;19.120;2023-05-23T09:02:59;7.90;;;6.85;;
71566;SDS011;59403;47.456;19.120;2023-05-23T09:05:26;6.77;;;5.50;;
71566;SDS011;59403;47.456;19.120;2023-05-23T09:07:53;8.30;;;6.37;;
71566;SDS011;59403;47.456;19.120;2023-05-23T09:10:20;10.00;;;6.95;;
71566;SDS011;59403;47.456;19.120;2023-05-23T09:12:49;9.05;;;6.60;;
71566;SDS011;59403;47.456;19.120;2023-05-23T09:15:16;8.02;;;6.20;;
71566;SDS011;59403;47.456;19.120;2023-05-23T09:17:43;9.40;;;6.77;;
71566;SDS011;59403;47.456;19.120;2023-05-23T09:20:11;8.60;;;6.62;;
71566;SDS011;59403;47.456;19.120;2023-05-23T09:22:40;8.18;;;6.75;;
71566;SDS011;59403;47.456;19.120;2023-05-23T09:25:07;9.68;;;6.62;;
71566;SDS011;59403;47.456;19.120;2023-05-23T09:27:34;11.02;;;7.22;;
71566;SDS011;59403;47.456;19.120;2023-05-23T09:30:06;7.73;;;5.80;;
71566;SDS011;59403;47.456;19.120;2023-05-23T09:32:34;8.70;;;6.05;;
71566;SDS011;59403;47.456;19.120;2023-05-23T09:35:01;8.55;;;7.47;;
71566;SDS011;59403;47.456;19.120;2023-05-23T09:37:30;8.52;;;6.28;;
71566;SDS011;59403;47.456;19.120;2023-05-23T09:39:58;11.10;;;7.28;;
71566;SDS011;59403;47.456;19.120;2023-05-23T09:42:30;8.03;;;6.73;;
71566;SDS011;59403;47.456;19.120;2023-05-23T09:44:58;8.57;;;7.78;;
71566;SDS011;59403;47.456;19.120;2023-05-23T09:47:26;10.07;;;7.87;;
71566;SDS011;59403;47.456;19.120;2023-05-23T09:49:54;8.27;;;7.03;;
71566;SDS011;59403;47.456;19.120;2023-05-23T09:52:21;9.95;;;6.90;;
71566;SDS011;59403;47.456;19.120;2023-05-23T09:54:47;7.93;;;6.47;;
71566;SDS011;59403;47.456;19.120;2023-05-23T09:57:15;10.75;;;7.18;;
71566;SDS011;59403;47.456;19.120;2023-05-23T09:59:44;9.32;;;7.10;;
71566;SDS011;59403;47.456;19.120;2023-05-23T10:02:19;10.05;;;7.37;;
71566;SDS011;59403;47.456;19.120;2023-05-23T10:05:02;8.88;;;7.50;;
71566;SDS011;59403;47.456;19.120;2023-05-23T10:07:32;9.67;;;7.10;;
71566;SDS011;59403;47.456;19.120;2023-05-23T10:10:04;9.05;;;7.18;;
71566;SDS011;59403;47.456;19.120;2023-05-23T10:12:38;8.70;;;7.57;;
71566;SDS011;59403;47.456;19.120;2023-05-23T10:15:10;8.38;;;6.03;;
71566;SDS011;59403;47.456;19.120;2023-05-23T10:17:45;11.88;;;7.18;;
71566;SDS011;59403;47.456;19.120;2023-05-23T10:20:29;7.50;;;6.70;;
71566;SDS011;59403;47.456;19.120;2023-05-23T10:22:58;8.57;;;6.20;;
71566;SDS011;59403;47.456;19.120;2023-05-23T10:25:26;10.55;;;6.95;;
71566;SDS011;59403;47.456;19.120;2023-05-23T10:27:54;8.40;;;6.12;;
71566;SDS011;59403;47.456;19.120;2023-05-23T10:30:24;8.30;;;6.10;;
71566;SDS011;59403;47.456;19.120;2023-05-23T10:34:39;21.87;;;8.60;;
71566;SDS011;59403;47.456;19.120;2023-05-23T10:37:24;32.22;;;8.50;;
71566;SDS011;59403;47.456;19.120;2023-05-23T10:43:01;20.37;;;7.70;;
71566;SDS011;59403;47.456;19.120;2023-05-23T10:45:38;11.25;;;7.32;;
71566;SDS011;59403;47.456;19.120;2023-05-23T10:48:16;8.63;;;7.30;;
71566;SDS011;59403;47.456;19.120;2023-05-23T10:51:00;9.20;;;7.33;;
71566;SDS011;59403;47.456;19.120;2023-05-23T10:53:29;13.70;;;7.07;;
71566;SDS011;59403;47.456;19.120;2023-05-23T10:55:56;9.45;;;7.07;;
71566;SDS011;59403;47.456;19.120;2023-05-23T10:58:24;10.30;;;7.05;;
71566;SDS011;59403;47.456;19.120;2023-05-23T11:00:58;9.15;;;7.10;;
71566;SDS011;59403;47.456;19.120;2023-05-23T11:03:30;9.00;;;7.50;;
71566;SDS011;59403;47.456;19.120;2023-05-23T11:05:59;8.55;;;6.45;;
71566;SDS011;59403;47.456;19.120;2023-05-23T11:08:27;8.77;;;6.82;;
71566;SDS011;59403;47.456;19.120;2023-05-23T11:11:02;9.68;;;7.70;;
71566;SDS011;59403;47.456;19.120;2023-05-23T11:16:27;8.67;;;7.53;;
71566;SDS011;59403;47.456;19.120;2023-05-23T11:21:51;9.63;;;7.70;;
71566;SDS011;59403;47.456;19.120;2023-05-23T11:24:20;10.23;;;7.55;;
71566;SDS011;59403;47.456;19.120;2023-05-23T11:26:51;11.00;;;7.75;;
71566;SDS011;59403;47.456;19.120;2023-05-23T11:29:21;8.47;;;7.03;;
71566;SDS011;59403;47.456;19.120;2023-05-23T11:31:48;8.23;;;7.18;;
71566;SDS011;59403;47.456;19.120;2023-05-23T11:34:15;8.70;;;7.72;;
71566;SDS011;59403;47.456;19.120;2023-05-23T11:36:43;9.95;;;7.80;;
71566;SDS011;59403;47.456;19.120;2023-05-23T11:39:11;9.35;;;7.65;;
71566;SDS011;59403;47.456;19.120;2023-05-23T11:41:40;11.23;;;7.87;;
71566;SDS011;59403;47.456;19.120;2023-05-23T11:44:10;8.93;;;7.45;;
71566;SDS011;59403;47.456;19.120;2023-05-23T11:46:39;7.72;;;6.90;;
71566;SDS011;59403;47.456;19.120;2023-05-23T11:49:12;8.70;;;7.60;;
71566;SDS011;59403;47.456;19.120;2023-05-23T11:51:38;8.20;;;7.20;;
71566;SDS011;59403;47.456;19.120;2023-05-23T11:54:05;9.43;;;7.53;;
71566;SDS011;59403;47.456;19.120;2023-05-23T11:56:37;12.57;;;7.18;;
71566;SDS011;59403;47.456;19.120;2023-05-23T11:59:05;8.80;;;6.25;;
71566;SDS011;59403;47.456;19.120;2023-05-23T12:01:35;8.98;;;7.20;;
71566;SDS011;59403;47.456;19.120;2023-05-23T12:04:07;7.47;;;6.78;;
71566;SDS011;59403;47.456;19.120;2023-05-23T12:06:36;7.37;;;6.33;;
71566;SDS011;59403;47.456;19.120;2023-05-23T12:09:05;7.93;;;7.00;;
71566;SDS011;59403;47.456;19.120;2023-05-23T12:11:32;8.43;;;7.18;;
71566;SDS011;59403;47.456;19.120;2023-05-23T12:13:59;7.55;;;6.85;;
71566;SDS011;59403;47.456;19.120;2023-05-23T12:16:30;10.73;;;7.60;;
71566;SDS011;59403;47.456;19.120;2023-05-23T12:18:57;9.10;;;6.90;;
71566;SDS011;59403;47.456;19.120;2023-05-23T12:21:38;9.80;;;7.37;;
71566;SDS011;59403;47.456;19.120;2023-05-23T12:24:11;10.30;;;7.87;;
71566;SDS011;59403;47.456;19.120;2023-05-23T12:26:45;8.48;;;7.62;;
71566;SDS011;59403;47.456;19.120;2023-05-23T12:29:12;8.85;;;8.02;;
71566;SDS011;59403;47.456;19.120;2023-05-23T12:31:40;8.67;;;7.53;;
71566;SDS011;59403;47.456;19.120;2023-05-23T12:34:07;9.45;;;7.70;;
71566;SDS011;59403;47.456;19.120;2023-05-23T12:36:38;8.82;;;7.12;;
71566;SDS011;59403;47.456;19.120;2023-05-23T12:39:06;8.38;;;7.15;;
71566;SDS011;59403;47.456;19.120;2023-05-23T12:41:34;8.45;;;7.35;;
71566;SDS011;59403;47.456;19.120;2023-05-23T12:44:01;8.97;;;7.07;;
71566;SDS011;59403;47.456;19.120;2023-05-23T12:46:29;8.65;;;7.60;;
71566;SDS011;59403;47.456;19.120;2023-05-23T12:48:55;9.15;;;7.18;;
71566;SDS011;59403;47.456;19.120;2023-05-23T12:51:22;6.82;;;5.90;;
71566;SDS011;59403;47.456;19.120;2023-05-23T12:53:51;9.00;;;6.18;;
71566;SDS011;59403;47.456;19.120;2023-05-23T12:56:19;7.27;;;6.47;;
71566;SDS011;59403;47.456;19.120;2023-05-23T12:58:46;10.20;;;6.87;;
71566;SDS011;59403;47.456;19.120;2023-05-23T13:01:13;7.90;;;6.57;;
71566;SDS011;59403;47.456;19.120;2023-05-23T13:03:40;10.50;;;7.30;;
71566;SDS011;59403;47.456;19.120;2023-05-23T13:06:07;7.97;;;7.28;;
71566;SDS011;59403;47.456;19.120;2023-05-23T13:08:34;7.40;;;6.70;;
71566;SDS011;59403;47.456;19.120;2023-05-23T13:11:02;8.45;;;6.55;;
71566;SDS011;59403;47.456;19.120;2023-05-23T13:13:29;8.93;;;7.15;;
71566;SDS011;59403;47.456;19.120;2023-05-23T13:15:57;7.80;;;7.00;;
71566;SDS011;59403;47.456;19.120;2023-05-23T13:18:24;7.43;;;6.55;;
71566;SDS011;59403;47.456;19.120;2023-05-23T13:20:51;10.20;;;7.40;;
71566;SDS011;59403;47.456;19.120;2023-05-23T13:23:18;8.25;;;7.45;;
71566;SDS011;59403;47.456;19.120;2023-05-23T13:25:45;7.93;;;7.12;;
71566;SDS011;59403;47.456;19.120;2023-05-23T13:28:15;7.32;;;6.68;;
71566;SDS011;59403;47.456;19.120;2023-05-23T13:30:42;7.70;;;6.85;;
71566;SDS011;59403;47.456;19.120;2023-05-23T13:33:09;7.90;;;7.10;;
71566;SDS011;59403;47.456;19.120;2023-05-23T13:35:36;8.00;;;6.82;;
71566;SDS011;59403;47.456;19.120;2023-05-23T13:38:03;8.02;;;7.15;;
71566;SDS011;59403;47.456;19.120;2023-05-23T13:40:30;9.73;;;6.97;;
71566;SDS011;59403;47.456;19.120;2023-05-23T13:42:57;10.25;;;7.68;;
71566;SDS011;59403;47.456;19.120;2023-05-23T13:45:26;7.50;;;6.80;;
71566;SDS011;59403;47.456;19.120;2023-05-23T13:47:54;9.35;;;6.95;;
71566;SDS011;59403;47.456;19.120;2023-05-23T13:50:21;8.10;;;7.07;;
71566;SDS011;59403;47.456;19.120;2023-05-23T13:52:47;9.18;;;6.78;;
71566;SDS011;59403;47.456;19.120;2023-05-23T13:55:15;8.02;;;6.78;;
71566;SDS011;59403;47.456;19.120;2023-05-23T13:57:42;7.77;;;6.97;;
71566;SDS011;59403;47.456;19.120;2023-05-23T14:00:10;7.45;;;5.93;;
71566;SDS011;59403;47.456;19.120;2023-05-23T14:02:39;6.45;;;5.85;;
71566;SDS011;59403;47.456;19.120;2023-05-23T14:05:06;9.48;;;6.15;;
71566;SDS011;59403;47.456;19.120;2023-05-23T14:07:34;8.05;;;6.12;;
71566;SDS011;59403;47.456;19.120;2023-05-23T14:10:02;9.23;;;5.80;;
71566;SDS011;59403;47.456;19.120;2023-05-23T14:12:31;7.57;;;6.28;;
71566;SDS011;59403;47.456;19.120;2023-05-23T14:14:58;11.20;;;6.30;;
71566;SDS011;59403;47.456;19.120;2023-05-23T14:17:24;9.02;;;6.10;;
71566;SDS011;59403;47.456;19.120;2023-05-23T14:19:53;13.30;;;6.22;;
71566;SDS011;59403;47.456;19.120;2023-05-23T14:22:20;6.87;;;4.90;;
71566;SDS011;59403;47.456;19.120;2023-05-23T14:24:47;6.93;;;6.15;;
71566;SDS011;59403;47.456;19.120;2023-05-23T14:27:13;8.57;;;5.45;;
71566;SDS011;59403;47.456;19.120;2023-05-23T14:29:41;8.15;;;5.20;;
71566;SDS011;59403;47.456;19.120;2023-05-23T14:32:10;7.87;;;5.68;;
71566;SDS011;59403;47.456;19.120;2023-05-23T14:34:37;5.90;;;5.30;;
71566;SDS011;59403;47.456;19.120;2023-05-23T14:37:10;7.75;;;5.80;;
71566;SDS011;59403;47.456;19.120;2023-05-23T14:39:37;7.57;;;5.60;;
71566;SDS011;59403;47.456;19.120;2023-05-23T14:42:04;6.75;;;5.93;;
71566;SDS011;59403;47.456;19.120;2023-05-23T14:44:31;6.68;;;5.25;;